createdAt,value
2018-11-27T00:00:34.265Z,-1.21
2018-11-27T00:03:05.348Z,-1.19
2018-11-27T00:05:34.268Z,-1.27
2018-11-27T00:08:31.938Z,-1.29
2018-11-27T00:11:00.144Z,-1.29
2018-11-27T00:13:28.489Z,-1.23
2018-11-27T00:15:56.634Z,-1.22
2018-11-27T00:18:24.877Z,-1.35
2018-11-27T00:20:56.731Z,-1.04
2018-11-27T00:23:24.946Z,-1.39
2018-11-27T00:25:53.588Z,-1.08
2018-11-27T00:28:21.773Z,-1.52
2018-11-27T00:30:49.952Z,-1.31
2018-11-27T00:33:18.129Z,-1.43
2018-11-27T00:35:46.417Z,-1.43
2018-11-27T00:38:14.576Z,-1.29
2018-11-27T00:40:42.733Z,-1.30
2018-11-27T00:43:10.925Z,-1.47
2018-11-27T00:45:39.317Z,-1.53
2018-11-27T00:48:07.528Z,-1.38
2018-11-27T00:50:35.685Z,-1.27
2018-11-27T00:53:03.870Z,-1.55
2018-11-27T00:55:32.050Z,-1.54
2018-11-27T00:58:00.281Z,-1.60
2018-11-27T01:00:28.490Z,-1.71
2018-11-27T01:02:56.665Z,-1.35
2018-11-27T01:05:25.716Z,-1.37
2018-11-27T01:07:53.871Z,-1.31
2018-11-27T01:10:23.879Z,-1.38
2018-11-27T01:12:52.137Z,-1.33
2018-11-27T01:15:20.495Z,-1.26
2018-11-27T01:20:33.496Z,-1.40
2018-11-27T01:23:01.657Z,-1.19
2018-11-27T01:25:29.786Z,-1.29
2018-11-27T01:27:57.984Z,-1.49
2018-11-27T01:30:26.146Z,-1.39
2018-11-27T01:32:54.371Z,-1.34
2018-11-27T01:35:23.534Z,-1.52
2018-11-27T01:37:52.856Z,-1.34
2018-11-27T01:40:21.909Z,-1.57
2018-11-27T01:42:51.186Z,-1.51
2018-11-27T01:45:20.210Z,-1.48
2018-11-27T01:47:48.504Z,-1.51
2018-11-27T01:50:23.432Z,-1.53
2018-11-27T01:52:51.600Z,-1.64
2018-11-27T01:55:20.660Z,-1.50
2018-11-27T01:57:49.113Z,-1.65
2018-11-27T02:00:20.914Z,-1.68
2018-11-27T02:02:49.143Z,-1.65
2018-11-27T02:08:08.968Z,-1.42
2018-11-27T02:10:37.088Z,-1.44
2018-11-27T02:13:05.995Z,-1.48
2018-11-27T02:15:34.153Z,-1.39
2018-11-27T02:18:02.381Z,-1.34
2018-11-27T02:20:30.559Z,-1.33
2018-11-27T02:22:58.796Z,-1.34
2018-11-27T02:25:28.190Z,-1.30
2018-11-27T02:27:56.544Z,-1.25
2018-11-27T02:30:25.441Z,-1.28
2018-11-27T02:32:53.626Z,-1.24
2018-11-27T02:35:22.554Z,-1.35
2018-11-27T02:37:51.644Z,-1.25
2018-11-27T02:40:19.829Z,-1.21
2018-11-27T02:42:48.082Z,-1.24
2018-11-27T02:45:17.658Z,-1.32
2018-11-27T02:47:46.196Z,-1.31
2018-11-27T02:50:15.594Z,-1.27
2018-11-27T02:52:43.876Z,-1.17
2018-11-27T02:55:14.539Z,-1.18
2018-11-27T02:57:42.727Z,-1.26
2018-11-27T03:00:12.838Z,-1.27
2018-11-27T03:02:41.218Z,-1.21
2018-11-27T03:05:13.517Z,-1.14
2018-11-27T03:07:41.741Z,-1.10
2018-11-27T03:10:12.337Z,-1.19
2018-11-27T03:12:40.562Z,-1.17
2018-11-27T03:15:10.572Z,-1.11
2018-11-27T03:17:38.799Z,-1.04
2018-11-27T03:20:08.590Z,-0.95
2018-11-27T03:22:36.727Z,-1.01
2018-11-27T03:25:06.572Z,-1.10
2018-11-27T03:27:35.086Z,-1.04
2018-11-27T03:30:03.266Z,-0.96
2018-11-27T03:32:31.405Z,-0.87
2018-11-27T03:34:59.715Z,-0.91
2018-11-27T03:37:27.864Z,-0.79
2018-11-27T03:39:56.100Z,-0.80
2018-11-27T03:42:24.277Z,-0.65
2018-11-27T03:44:52.472Z,-0.68
2018-11-27T03:47:20.627Z,-0.67
2018-11-27T03:49:48.933Z,-0.68
2018-11-27T03:52:16.976Z,-0.62
2018-11-27T03:54:45.125Z,-0.54
2018-11-27T03:57:14.409Z,-0.69
2018-11-27T03:59:42.666Z,-0.56
2018-11-27T04:02:10.823Z,-0.54
2018-11-27T04:04:39.007Z,-0.49
2018-11-27T04:07:07.305Z,-0.47
2018-11-27T04:09:35.560Z,-0.52
2018-11-27T04:12:03.728Z,-0.45
2018-11-27T04:14:31.937Z,-0.50
2018-11-27T04:17:01.002Z,-0.46
2018-11-27T04:19:29.124Z,-0.41
2018-11-27T04:21:57.320Z,-0.41
2018-11-27T04:24:25.449Z,-0.48
2018-11-27T04:26:53.723Z,-0.52
2018-11-27T04:29:22.222Z,-0.48
2018-11-27T04:31:50.341Z,-0.48
2018-11-27T04:34:18.480Z,-0.50
2018-11-27T04:36:46.877Z,-0.43
2018-11-27T04:39:15.077Z,-0.44
2018-11-27T04:41:43.217Z,-0.43
2018-11-27T04:44:11.378Z,-0.38
2018-11-27T04:46:39.608Z,-0.37
2018-11-27T04:49:07.854Z,-0.31
2018-11-27T04:51:36.047Z,-0.26
2018-11-27T04:54:04.410Z,-0.27
2018-11-27T04:56:32.571Z,-0.22
2018-11-27T04:59:01.469Z,-0.24
2018-11-27T05:01:29.660Z,-0.29
2018-11-27T05:03:57.848Z,-0.21
2018-11-27T05:06:26.064Z,-0.12
2018-11-27T05:11:47.269Z,-0.13
2018-11-27T05:14:15.393Z,-0.15
2018-11-27T05:16:43.585Z,-0.10
2018-11-27T05:19:11.778Z,-0.16
2018-11-27T05:21:40.018Z,-0.10
2018-11-27T05:24:08.215Z,-0.07
2018-11-27T05:26:36.393Z,-0.08
2018-11-27T05:31:25.733Z,0.01
2018-11-27T05:33:57.010Z,0.15
2018-11-27T05:36:25.257Z,0.19
2018-11-27T05:38:53.489Z,0.11
2018-11-27T05:41:21.730Z,0.10
2018-11-27T05:43:49.983Z,-0.29
2018-11-27T05:46:18.156Z,0.10
2018-11-27T05:48:46.313Z,0.15
2018-11-27T05:51:14.481Z,0.12
2018-11-27T05:53:42.643Z,0.27
2018-11-27T05:56:10.820Z,0.27
2018-11-27T05:58:39.000Z,0.25
2018-11-27T06:01:07.248Z,0.19
2018-11-27T06:03:35.408Z,0.18
2018-11-27T06:06:03.679Z,0.25
2018-11-27T06:08:31.814Z,0.21
2018-11-27T06:11:00.059Z,0.24
2018-11-27T06:13:28.266Z,0.28
2018-11-27T06:15:56.538Z,0.27
2018-11-27T06:18:24.700Z,0.27
2018-11-27T06:20:52.911Z,0.32
2018-11-27T06:23:31.018Z,0.44
2018-11-27T06:25:59.168Z,0.33
2018-11-27T06:28:27.460Z,0.34
2018-11-27T06:30:55.641Z,0.38
2018-11-27T06:33:23.837Z,0.44
2018-11-27T06:35:55.496Z,0.41
2018-11-27T06:38:23.718Z,0.46
2018-11-27T06:40:51.881Z,0.50
2018-11-27T06:43:20.312Z,0.59
2018-11-27T06:45:48.478Z,0.53
2018-11-27T06:48:16.739Z,0.46
2018-11-27T06:50:44.888Z,0.65
2018-11-27T06:53:13.154Z,0.77
2018-11-27T06:55:42.475Z,0.69
2018-11-27T06:58:10.662Z,0.60
2018-11-27T07:00:38.835Z,0.59
2018-11-27T07:03:10.583Z,0.58
2018-11-27T07:05:39.027Z,0.69
2018-11-27T07:08:08.815Z,0.67
2018-11-27T07:10:37.652Z,0.78
2018-11-27T07:13:12.230Z,0.74
2018-11-27T07:15:40.520Z,0.74
2018-11-27T07:18:09.414Z,0.75
2018-11-27T07:20:37.870Z,0.66
2018-11-27T07:23:06.660Z,0.77
2018-11-27T07:25:34.943Z,1.36
2018-11-27T07:28:03.118Z,1.33
2018-11-27T07:30:31.258Z,1.21
2018-11-27T07:33:00.463Z,1.16
2018-11-27T07:35:28.613Z,1.07
2018-11-27T07:37:56.755Z,1.25
2018-11-27T07:40:26.052Z,1.86
2018-11-27T07:42:58.397Z,1.36
2018-11-27T07:45:26.548Z,1.46
2018-11-27T07:47:54.693Z,1.42
2018-11-27T07:50:22.824Z,1.81
2018-11-27T07:52:51.105Z,1.89
2018-11-27T07:55:20.240Z,1.59
2018-11-27T07:57:48.641Z,1.39
2018-11-27T08:00:21.819Z,1.79
2018-11-27T08:02:50.947Z,2.29
2018-11-27T08:05:22.358Z,1.98
2018-11-27T08:07:53.841Z,1.59
2018-11-27T08:10:23.124Z,1.47
2018-11-27T08:12:51.396Z,1.38
2018-11-27T08:15:21.659Z,1.63
2018-11-27T08:17:49.855Z,1.44
2018-11-27T08:20:21.049Z,1.60
2018-11-27T08:22:50.708Z,1.60
2018-11-27T08:25:19.017Z,1.51
2018-11-27T08:27:47.234Z,1.73
2018-11-27T08:30:16.446Z,1.46
2018-11-27T08:32:45.508Z,1.36
2018-11-27T08:35:15.670Z,1.50
2018-11-27T08:37:44.393Z,1.92
2018-11-27T08:40:13.614Z,1.47
2018-11-27T08:42:41.774Z,1.53
2018-11-27T08:45:13.678Z,1.55
2018-11-27T08:47:41.923Z,1.63
2018-11-27T08:50:13.326Z,1.91
2018-11-27T08:52:46.613Z,1.72
2018-11-27T08:55:11.603Z,1.66
2018-11-27T08:57:40.273Z,1.91
2018-11-27T09:00:15.965Z,1.57
2018-11-27T09:02:47.973Z,1.57
2018-11-27T09:05:16.138Z,1.82
2018-11-27T09:07:44.730Z,1.67
2018-11-27T09:10:18.696Z,1.74
2018-11-27T09:12:46.840Z,1.58
2018-11-27T09:15:16.053Z,1.59
2018-11-27T09:17:47.706Z,1.91
2018-11-27T09:20:15.903Z,1.84
2018-11-27T09:22:44.065Z,2.29
2018-11-27T09:25:13.304Z,2.04
2018-11-27T09:27:41.602Z,2.28
2018-11-27T09:30:18.101Z,1.83
2018-11-27T09:32:46.429Z,1.84
2018-11-27T09:35:21.318Z,2.16
2018-11-27T09:37:49.487Z,2.35
2018-11-27T09:40:18.822Z,2.88
2018-11-27T09:42:47.045Z,2.83
2018-11-27T09:45:18.573Z,2.77
2018-11-27T09:50:22.283Z,2.24
2018-11-27T09:52:50.479Z,2.66
2018-11-27T09:55:20.602Z,2.47
2018-11-27T09:57:48.952Z,2.49
2018-11-27T10:00:33.795Z,2.43
2018-11-27T10:03:06.878Z,2.31
2018-11-27T10:05:35.210Z,2.59
2018-11-27T10:08:03.602Z,2.65
2018-11-27T10:10:31.863Z,2.50
2018-11-27T10:13:00.020Z,2.14
2018-11-27T10:15:28.990Z,2.73
2018-11-27T10:17:59.297Z,2.99
2018-11-27T10:20:32.823Z,2.52
2018-11-27T10:23:01.304Z,3.59
2018-11-27T10:25:29.526Z,2.41
2018-11-27T10:27:57.789Z,2.27
2018-11-27T10:30:27.138Z,2.08
2018-11-27T10:32:56.669Z,2.17
2018-11-27T10:35:26.872Z,2.14
2018-11-27T10:37:55.154Z,2.07
2018-11-27T10:40:23.346Z,2.07
2018-11-27T10:42:51.600Z,2.07
2018-11-27T10:45:20.667Z,2.10
2018-11-27T10:47:50.042Z,2.08
2018-11-27T10:50:18.711Z,2.08
2018-11-27T10:52:48.213Z,2.04
2018-11-27T10:55:17.150Z,2.04
2018-11-27T10:57:45.344Z,2.08
2018-11-27T11:00:24.559Z,2.17
2018-11-27T11:02:57.936Z,2.20
2018-11-27T11:05:32.129Z,2.09
2018-11-27T11:08:00.310Z,2.07
2018-11-27T11:10:28.549Z,2.16
2018-11-27T11:12:56.701Z,2.15
2018-11-27T11:15:24.885Z,2.32
2018-11-27T11:17:53.059Z,2.27
2018-11-27T11:20:21.699Z,2.20
2018-11-27T11:22:49.859Z,2.19
2018-11-27T11:25:21.977Z,2.16
2018-11-27T11:27:59.308Z,2.32
2018-11-27T11:30:27.541Z,2.16
2018-11-27T11:32:55.742Z,2.25
2018-11-27T11:35:23.940Z,2.34
2018-11-27T11:37:52.134Z,2.38
2018-11-27T11:40:23.840Z,2.39
2018-11-27T11:42:54.390Z,2.39
2018-11-27T11:45:22.566Z,2.40
2018-11-27T11:47:50.794Z,2.50
2018-11-27T11:50:23.146Z,2.48
2018-11-27T11:52:53.474Z,2.44
2018-11-27T11:55:21.642Z,2.52
2018-11-27T11:57:49.933Z,2.52
2018-11-27T12:00:24.425Z,2.51
2018-11-27T12:02:52.589Z,2.54
2018-11-27T12:05:25.016Z,2.53
2018-11-27T12:07:48.997Z,2.56
2018-11-27T12:10:17.408Z,2.41
2018-11-27T12:12:47.349Z,2.41
2018-11-27T12:15:16.486Z,2.47
2018-11-27T12:17:45.026Z,2.51
2018-11-27T12:20:14.049Z,2.58
2018-11-27T12:22:44.486Z,2.58
2018-11-27T12:25:13.417Z,2.56
2018-11-27T12:27:41.758Z,2.56
2018-11-27T12:30:11.465Z,2.47
2018-11-27T12:32:39.766Z,2.47
2018-11-27T12:35:08.713Z,2.58
2018-11-27T12:37:37.143Z,2.61
2018-11-27T12:40:09.459Z,2.54
2018-11-27T12:42:37.618Z,2.62
2018-11-27T12:45:06.438Z,2.62
2018-11-27T12:47:34.627Z,2.62
2018-11-27T12:50:02.832Z,2.63
2018-11-27T12:52:31.017Z,2.64
2018-11-27T12:54:59.162Z,2.70
2018-11-27T12:57:27.337Z,2.62
2018-11-27T12:59:55.497Z,2.71
2018-11-27T13:02:23.661Z,2.59
2018-11-27T13:04:51.943Z,2.73
2018-11-27T13:07:20.119Z,2.72
2018-11-27T13:09:48.263Z,2.71
2018-11-27T13:12:16.631Z,2.69
2018-11-27T13:14:44.862Z,2.69
2018-11-27T13:17:13.106Z,2.78
2018-11-27T13:19:41.487Z,2.73
2018-11-27T13:22:09.841Z,2.79
2018-11-27T13:24:38.074Z,2.65
2018-11-27T13:27:06.411Z,2.71
2018-11-27T13:29:34.696Z,2.74
2018-11-27T13:32:02.861Z,2.67
2018-11-27T13:34:32.916Z,2.64
2018-11-27T13:37:01.157Z,2.73
2018-11-27T13:39:34.551Z,2.64
2018-11-27T13:42:02.842Z,2.68
2018-11-27T13:44:31.111Z,2.73
2018-11-27T13:46:59.290Z,2.75
2018-11-27T13:49:27.834Z,2.69
2018-11-27T13:51:55.639Z,2.77
2018-11-27T13:54:23.859Z,2.68
2018-11-27T13:56:52.002Z,2.64
2018-11-27T13:59:20.292Z,2.72
2018-11-27T14:01:48.445Z,2.73
2018-11-27T14:04:16.722Z,2.72
2018-11-27T14:06:44.905Z,2.76
2018-11-27T14:09:13.154Z,2.78
2018-11-27T14:11:42.094Z,2.70
2018-11-27T14:14:10.268Z,2.72
2018-11-27T14:16:38.417Z,2.72
2018-11-27T14:19:06.697Z,2.64
2018-11-27T14:21:34.837Z,2.63
2018-11-27T14:24:02.986Z,2.64
2018-11-27T14:26:31.181Z,2.65
2018-11-27T14:28:59.326Z,2.56
2018-11-27T14:31:27.474Z,2.52
2018-11-27T14:33:55.765Z,2.56
2018-11-27T14:36:24.008Z,2.63
2018-11-27T14:38:52.192Z,2.56
2018-11-27T14:41:20.466Z,2.60
2018-11-27T14:43:48.640Z,2.58
2018-11-27T14:46:16.900Z,2.58
2018-11-27T14:48:45.119Z,2.56
2018-11-27T14:51:13.280Z,2.53
2018-11-27T14:53:42.449Z,2.51
2018-11-27T14:56:10.644Z,2.55
2018-11-27T14:58:38.853Z,2.50
2018-11-27T15:01:07.148Z,2.53
2018-11-27T15:03:35.335Z,2.54
2018-11-27T15:06:03.732Z,2.50
2018-11-27T15:08:31.883Z,2.50
2018-11-27T15:11:00.081Z,2.51
2018-11-27T15:13:28.250Z,2.52
2018-11-27T15:15:56.411Z,2.47
2018-11-27T15:18:24.562Z,2.51
2018-11-27T15:20:52.756Z,2.48
2018-11-27T15:23:20.939Z,2.47
2018-11-27T15:25:49.158Z,2.47
2018-11-27T15:28:17.455Z,2.42
2018-11-27T15:30:45.631Z,2.48
2018-11-27T15:33:18.495Z,2.50
2018-11-27T15:35:42.050Z,2.43
2018-11-27T15:38:10.270Z,2.41
2018-11-27T15:40:39.424Z,2.45
2018-11-27T15:43:14.274Z,2.37
2018-11-27T15:45:42.495Z,2.41
2018-11-27T15:48:10.682Z,2.40
2018-11-27T15:50:39.014Z,2.37
2018-11-27T15:53:07.187Z,2.32
2018-11-27T15:55:37.665Z,2.34
2018-11-27T15:58:11.157Z,2.35
2018-11-27T16:00:39.778Z,2.38
2018-11-27T16:03:08.150Z,2.33
2018-11-27T16:05:36.968Z,2.29
2018-11-27T16:08:05.328Z,2.30
2018-11-27T16:10:33.485Z,2.37
2018-11-27T16:13:01.765Z,2.39
2018-11-27T16:15:30.085Z,1.99
2018-11-27T16:17:58.273Z,2.39
2018-11-27T16:20:26.562Z,2.34
2018-11-27T16:22:54.736Z,2.44
2018-11-27T16:25:23.822Z,2.35
2018-11-27T16:27:52.072Z,2.40
2018-11-27T16:30:30.630Z,2.33
2018-11-27T16:32:58.952Z,2.31
2018-11-27T16:35:27.156Z,2.30
2018-11-27T16:38:00.073Z,2.27
2018-11-27T16:40:32.096Z,2.23
2018-11-27T16:43:00.370Z,2.17
2018-11-27T16:45:28.562Z,2.27
2018-11-27T16:47:56.768Z,2.32
2018-11-27T16:50:24.922Z,2.27
2018-11-27T16:52:53.133Z,2.29
2018-11-27T16:55:22.186Z,2.30
2018-11-27T16:57:50.395Z,2.36
2018-11-27T17:00:28.359Z,2.35
2018-11-27T17:03:04.273Z,2.25
2018-11-27T17:05:41.154Z,2.31
2018-11-27T17:08:17.448Z,2.25
2018-11-27T17:10:45.709Z,2.32
2018-11-27T17:13:17.222Z,2.27
2018-11-27T17:15:47.902Z,2.27
2018-11-27T17:18:16.516Z,2.37
2018-11-27T17:20:45.607Z,2.31
2018-11-27T17:23:14.924Z,2.35
2018-11-27T17:25:43.193Z,2.28
2018-11-27T17:28:14.494Z,2.22
2018-11-27T17:33:45.534Z,2.23
2018-11-27T17:36:13.676Z,2.23
2018-11-27T17:38:41.930Z,2.28
2018-11-27T17:41:10.201Z,2.21
2018-11-27T17:43:39.049Z,2.21
2018-11-27T17:46:07.683Z,2.19
2018-11-27T17:48:35.921Z,2.17
2018-11-27T17:51:04.242Z,2.20
2018-11-27T17:53:32.441Z,2.19
2018-11-27T17:56:00.665Z,2.18
2018-11-27T17:58:28.807Z,2.18
2018-11-27T18:00:57.042Z,2.10
2018-11-27T18:03:25.265Z,2.14
2018-11-27T18:05:53.614Z,2.11
2018-11-27T18:08:21.887Z,2.17
2018-11-27T18:10:50.066Z,2.09
2018-11-27T18:13:18.440Z,2.12
2018-11-27T18:15:46.650Z,2.06
2018-11-27T18:18:14.991Z,2.11
2018-11-27T18:20:43.308Z,2.05
2018-11-27T18:23:11.661Z,2.12
2018-11-27T18:25:39.801Z,2.11
2018-11-27T18:28:08.033Z,2.10
2018-11-27T18:30:37.379Z,2.13
2018-11-27T18:33:05.977Z,2.01
2018-11-27T18:35:34.325Z,1.99
2018-11-27T18:38:02.513Z,2.03
2018-11-27T18:40:49.540Z,2.03
2018-11-27T18:46:22.369Z,1.89
2018-11-27T18:48:50.541Z,2.01
2018-11-27T18:51:18.668Z,1.95
2018-11-27T18:53:47.635Z,1.88
2018-11-27T18:56:15.986Z,1.81
2018-11-27T18:58:44.219Z,1.77
2018-11-27T19:01:12.580Z,1.76
2018-11-27T19:03:40.724Z,1.83
2018-11-27T19:06:08.902Z,1.71
2018-11-27T19:08:37.078Z,1.79
2018-11-27T19:11:05.629Z,1.75
2018-11-27T19:13:33.821Z,1.79
2018-11-27T19:16:01.997Z,1.73
2018-11-27T19:18:30.389Z,1.67
2018-11-27T19:20:58.593Z,1.68
2018-11-27T19:23:26.937Z,1.72
2018-11-27T19:25:55.884Z,1.79
2018-11-27T19:28:24.263Z,1.66
2018-11-27T19:31:05.172Z,1.68
2018-11-27T19:33:33.332Z,1.72
2018-11-27T19:36:01.620Z,1.77
2018-11-27T19:38:29.909Z,1.79
2018-11-27T19:40:58.104Z,1.74
2018-11-27T19:43:26.326Z,1.78
2018-11-27T19:45:55.889Z,1.71
2018-11-27T19:48:24.153Z,1.68
2018-11-27T19:50:52.445Z,1.68
2018-11-27T19:53:22.098Z,1.71
2018-11-27T19:55:50.274Z,1.68
2018-11-27T19:58:18.487Z,1.71
2018-11-27T20:00:47.085Z,1.69
2018-11-27T20:03:15.285Z,1.75
2018-11-27T20:05:43.446Z,1.66
2018-11-27T20:08:16.090Z,1.68
2018-11-27T20:10:44.343Z,1.55
2018-11-27T20:13:12.752Z,1.61
2018-11-27T20:15:41.139Z,1.57
2018-11-27T20:18:10.422Z,1.59
2018-11-27T20:20:38.751Z,1.48
2018-11-27T20:23:07.078Z,1.49
2018-11-27T20:25:36.079Z,1.44
2018-11-27T20:28:04.469Z,1.41
2018-11-27T20:30:32.957Z,1.38
2018-11-27T20:33:02.713Z,1.35
2018-11-27T20:35:31.574Z,1.29
2018-11-27T20:38:01.722Z,1.24
2018-11-27T20:40:29.925Z,1.34
2018-11-27T20:42:58.158Z,1.40
2018-11-27T20:45:27.130Z,1.44
2018-11-27T20:48:00.139Z,1.44
2018-11-27T20:50:28.385Z,1.39
2018-11-27T20:52:56.534Z,1.42
2018-11-27T20:55:24.754Z,1.49
2018-11-27T21:00:46.737Z,1.45
2018-11-27T21:03:15.683Z,1.46
2018-11-27T21:05:45.708Z,1.40
2018-11-27T21:08:13.915Z,1.30
2018-11-27T21:10:42.160Z,1.38
2018-11-27T21:13:11.398Z,1.29
2018-11-27T21:15:40.878Z,1.33
2018-11-27T21:18:10.259Z,1.34
2018-11-27T21:20:38.722Z,1.27
2018-11-27T21:23:06.993Z,1.22
2018-11-27T21:25:35.614Z,1.21
2018-11-27T21:28:06.880Z,1.09
2018-11-27T21:30:35.179Z,0.96
2018-11-27T21:33:03.510Z,0.98
2018-11-27T21:35:31.757Z,0.89
2018-11-27T21:37:59.999Z,0.76
2018-11-27T21:40:28.936Z,0.95
2018-11-27T21:42:57.385Z,0.71
2018-11-27T21:45:26.480Z,0.72
2018-11-27T21:47:55.537Z,0.68
2018-11-27T21:53:16.778Z,0.49
2018-11-27T21:55:44.960Z,0.31
2018-11-27T21:58:13.197Z,0.44
2018-11-27T22:00:42.295Z,0.35
2018-11-27T22:03:12.165Z,0.35
2018-11-27T22:05:40.345Z,0.36
2018-11-27T22:08:08.791Z,0.29
2018-11-27T22:10:37.167Z,0.38
2018-11-27T22:13:06.904Z,0.34
2018-11-27T22:15:36.397Z,0.31
2018-11-27T22:18:06.133Z,0.23
2018-11-27T22:20:34.453Z,0.23
2018-11-27T22:23:02.739Z,0.14
2018-11-27T22:25:30.936Z,0.10
2018-11-27T22:27:59.101Z,-0.02
2018-11-27T22:30:27.321Z,0.02
2018-11-27T22:32:55.852Z,-0.09
2018-11-27T22:35:24.151Z,-0.03
2018-11-27T22:37:52.455Z,0.02
2018-11-27T22:40:24.145Z,-0.19
2018-11-27T22:42:59.183Z,-0.14
2018-11-27T22:45:32.918Z,-0.27
2018-11-27T22:48:01.196Z,-0.25
2018-11-27T22:50:29.474Z,-0.22
2018-11-27T22:52:57.616Z,-0.26
2018-11-27T22:55:25.897Z,-0.25
2018-11-27T22:57:54.170Z,-0.36
2018-11-27T23:00:30.875Z,-0.38
2018-11-27T23:02:59.312Z,-0.31
2018-11-27T23:05:27.604Z,-0.48
2018-11-27T23:07:56.076Z,-0.48
2018-11-27T23:10:24.914Z,-0.77
2018-11-27T23:12:53.225Z,-0.43
2018-11-27T23:15:27.352Z,-0.42
2018-11-27T23:17:56.283Z,-0.60
2018-11-27T23:20:24.709Z,-0.46
2018-11-27T23:22:52.977Z,-0.71
2018-11-27T23:25:21.286Z,-0.61
2018-11-27T23:27:50.565Z,-0.73
2018-11-27T23:30:20.237Z,-0.73
2018-11-27T23:32:48.545Z,-0.80
2018-11-27T23:35:16.833Z,-0.91
2018-11-27T23:37:45.037Z,-0.77
2018-11-27T23:40:14.953Z,-0.78
2018-11-27T23:42:43.612Z,-0.97
2018-11-27T23:45:15.504Z,-0.91
2018-11-27T23:47:43.676Z,-0.88
2018-11-27T23:50:12.810Z,-1.06
2018-11-27T23:52:40.977Z,-1.01
2018-11-27T23:55:10.092Z,-1.17
2018-11-27T23:57:38.350Z,-1.28
